sensor_id;sensor_type;location;lat;lon;timestamp;pressure;altitude;pressure_sealevel;temperature;humidity
77281;BME280;66339;47.262;17.144;2023-03-21T00:00:44;100354.03;;;19.49;42.38
77281;BME280;66339;47.262;17.144;2023-03-21T00:03:12;100351.34;;;19.49;42.40
77281;BME280;66339;47.262;17.144;2023-03-21T00:05:41;100348.66;;;19.49;42.35
77281;BME280;66339;47.262;17.144;2023-03-21T00:08:09;100351.34;;;19.49;42.33
77281;BME280;66339;47.262;17.144;2023-03-21T00:10:37;100348.91;;;19.48;42.42
77281;BME280;66339;47.262;17.144;2023-03-21T00:13:30;100349.19;;;19.46;42.50
77281;BME280;66339;47.262;17.144;2023-03-21T00:16:06;100348.41;;;19.46;42.36
77281;BME280;66339;47.262;17.144;2023-03-21T00:18:53;100350.00;;;19.47;42.34
77281;BME280;66339;47.262;17.144;2023-03-21T00:21:21;100343.84;;;19.46;42.30
77281;BME280;66339;47.262;17.144;2023-03-21T00:24:08;100342.75;;;19.47;42.22
77281;BME280;66339;47.262;17.144;2023-03-21T00:26:35;100336.84;;;19.45;42.21
77281;BME280;66339;47.262;17.144;2023-03-21T00:29:02;100341.16;;;19.46;42.17
77281;BME280;66339;47.262;17.144;2023-03-21T00:31:29;100340.06;;;19.47;42.14
77281;BME280;66339;47.262;17.144;2023-03-21T00:33:57;100333.09;;;19.46;42.32
77281;BME280;66339;47.262;17.144;2023-03-21T00:36:27;100335.78;;;19.46;42.18
77281;BME280;66339;47.262;17.144;2023-03-21T00:39:00;100337.66;;;19.46;42.14
77281;BME280;66339;47.262;17.144;2023-03-21T00:41:28;100329.34;;;19.47;42.16
77281;BME280;66339;47.262;17.144;2023-03-21T00:44:14;100333.34;;;19.45;42.14
77281;BME280;66339;47.262;17.144;2023-03-21T00:46:42;100328.53;;;19.47;42.06
77281;BME280;66339;47.262;17.144;2023-03-21T00:49:33;100323.97;;;19.47;42.08
77281;BME280;66339;47.262;17.144;2023-03-21T00:52:01;100325.31;;;19.45;42.10
77281;BME280;66339;47.262;17.144;2023-03-21T00:54:49;100328.00;;;19.45;42.10
77281;BME280;66339;47.262;17.144;2023-03-21T00:57:17;100323.72;;;19.44;42.06
77281;BME280;66339;47.262;17.144;2023-03-21T00:59:47;100324.00;;;19.42;42.12
77281;BME280;66339;47.262;17.144;2023-03-21T01:02:17;100321.31;;;19.42;42.07
77281;BME280;66339;47.262;17.144;2023-03-21T01:04:46;100319.69;;;19.41;42.03
77281;BME280;66339;47.262;17.144;2023-03-21T01:07:13;100318.91;;;19.41;42.11
77281;BME280;66339;47.262;17.144;2023-03-21T01:09:41;100312.72;;;19.40;42.08
77281;BME280;66339;47.262;17.144;2023-03-21T01:12:08;100313.81;;;19.39;42.08
77281;BME280;66339;47.262;17.144;2023-03-21T01:14:35;100314.63;;;19.40;42.05
77281;BME280;66339;47.262;17.144;2023-03-21T01:17:03;100311.13;;;19.39;42.01
77281;BME280;66339;47.262;17.144;2023-03-21T01:19:32;100307.91;;;19.37;42.00
77281;BME280;66339;47.262;17.144;2023-03-21T01:22:17;100302.53;;;19.37;42.03
77281;BME280;66339;47.262;17.144;2023-03-21T01:24:44;100306.84;;;19.38;42.07
77281;BME280;66339;47.262;17.144;2023-03-21T01:27:25;100304.97;;;19.38;41.99
77281;BME280;66339;47.262;17.144;2023-03-21T01:29:54;100299.88;;;19.37;41.97
77281;BME280;66339;47.262;17.144;2023-03-21T01:32:25;100299.34;;;19.35;42.05
77281;BME280;66339;47.262;17.144;2023-03-21T01:34:53;100297.19;;;19.37;41.97
77281;BME280;66339;47.262;17.144;2023-03-21T01:37:20;100298.28;;;19.36;42.00
77281;BME280;66339;47.262;17.144;2023-03-21T01:39:47;100296.66;;;19.35;41.97
77281;BME280;66339;47.262;17.144;2023-03-21T01:42:14;100287.03;;;19.34;42.03
77281;BME280;66339;47.262;17.144;2023-03-21T01:47:24;100289.16;;;19.32;42.00
77281;BME280;66339;47.262;17.144;2023-03-21T01:49:57;100288.09;;;19.33;41.96
77281;BME280;66339;47.262;17.144;2023-03-21T01:52:36;100286.50;;;19.32;41.99
77281;BME280;66339;47.262;17.144;2023-03-21T01:55:09;100282.22;;;19.31;42.02
77281;BME280;66339;47.262;17.144;2023-03-21T01:57:45;100282.22;;;19.31;41.97
77281;BME280;66339;47.262;17.144;2023-03-21T02:00:31;100273.63;;;19.29;42.03
77281;BME280;66339;47.262;17.144;2023-03-21T02:03:02;100275.25;;;19.30;41.93
77281;BME280;66339;47.262;17.144;2023-03-21T02:05:59;100277.37;;;19.28;42.03
77281;BME280;66339;47.262;17.144;2023-03-21T02:08:32;100272.03;;;19.28;42.08
77281;BME280;66339;47.262;17.144;2023-03-21T02:11:10;100273.63;;;19.29;42.12
77281;BME280;66339;47.262;17.144;2023-03-21T02:13:40;100271.22;;;19.27;42.24
77281;BME280;66339;47.262;17.144;2023-03-21T02:16:17;100265.06;;;19.27;42.22
77281;BME280;66339;47.262;17.144;2023-03-21T02:19:00;100272.56;;;19.25;42.22
77281;BME280;66339;47.262;17.144;2023-03-21T02:27:15;100270.16;;;19.23;42.32
77281;BME280;66339;47.262;17.144;2023-03-21T02:30:20;100274.75;;;19.23;42.25
77281;BME280;66339;47.262;17.144;2023-03-21T02:36:22;100276.34;;;19.24;42.33
77281;BME280;66339;47.262;17.144;2023-03-21T02:42:06;100269.38;;;19.23;42.36
77281;BME280;66339;47.262;17.144;2023-03-21T02:50:50;100272.31;;;19.21;42.41
77281;BME280;66339;47.262;17.144;2023-03-21T02:53:27;100273.12;;;19.22;42.41
77281;BME280;66339;47.262;17.144;2023-03-21T02:55:56;100271.50;;;19.21;42.47
77281;BME280;66339;47.262;17.144;2023-03-21T02:58:27;100271.50;;;19.21;42.48
77281;BME280;66339;47.262;17.144;2023-03-21T03:01:03;100266.16;;;19.21;42.45
77281;BME280;66339;47.262;17.144;2023-03-21T03:03:31;100260.78;;;19.21;42.54
77281;BME280;66339;47.262;17.144;2023-03-21T03:06:02;100262.66;;;19.20;42.59
77281;BME280;66339;47.262;17.144;2023-03-21T03:11:36;100260.78;;;19.21;42.51
77281;BME280;66339;47.262;17.144;2023-03-21T03:14:16;100262.16;;;19.18;42.52
77281;BME280;66339;47.262;17.144;2023-03-21T03:17:23;100261.88;;;19.20;42.54
77281;BME280;66339;47.262;17.144;2023-03-21T03:20:13;100262.97;;;19.19;42.49
77281;BME280;66339;47.262;17.144;2023-03-21T03:23:04;100270.72;;;19.20;42.49
77281;BME280;66339;47.262;17.144;2023-03-21T03:25:42;100271.00;;;19.19;42.49
77281;BME280;66339;47.262;17.144;2023-03-21T03:28:12;100274.47;;;19.19;42.52
77281;BME280;66339;47.262;17.144;2023-03-21T03:30:45;100266.69;;;19.18;42.49
77281;BME280;66339;47.262;17.144;2023-03-21T03:33:37;100270.47;;;19.17;42.45
77281;BME280;66339;47.262;17.144;2023-03-21T03:36:10;100270.75;;;19.15;42.49
77281;BME280;66339;47.262;17.144;2023-03-21T03:38:54;100272.62;;;19.15;42.53
77281;BME280;66339;47.262;17.144;2023-03-21T03:41:30;100267.25;;;19.15;42.50
77281;BME280;66339;47.262;17.144;2023-03-21T03:44:20;100265.62;;;19.13;42.52
77281;BME280;66339;47.262;17.144;2023-03-21T03:46:54;100271.00;;;19.13;42.51
77281;BME280;66339;47.262;17.144;2023-03-21T03:49:28;100270.19;;;19.13;42.51
77281;BME280;66339;47.262;17.144;2023-03-21T03:52:19;100278.53;;;19.11;42.55
77281;BME280;66339;47.262;17.144;2023-03-21T03:54:54;100278.53;;;19.11;42.52
77281;BME280;66339;47.262;17.144;2023-03-21T03:57:25;100271.56;;;19.10;42.50
77281;BME280;66339;47.262;17.144;2023-03-21T03:59:55;100273.72;;;19.08;42.54
77281;BME280;66339;47.262;17.144;2023-03-21T04:02:24;100269.94;;;19.09;42.49
77281;BME280;66339;47.262;17.144;2023-03-21T04:04:54;100273.72;;;19.08;42.47
77281;BME280;66339;47.262;17.144;2023-03-21T04:07:23;100275.31;;;19.09;42.42
77281;BME280;66339;47.262;17.144;2023-03-21T04:09:54;100275.31;;;19.09;42.44
77281;BME280;66339;47.262;17.144;2023-03-21T04:12:27;100278.28;;;19.08;42.46
77281;BME280;66339;47.262;17.144;2023-03-21T04:15:00;100279.06;;;19.08;42.42
77281;BME280;66339;47.262;17.144;2023-03-21T04:17:42;100269.69;;;19.06;42.49
77281;BME280;66339;47.262;17.144;2023-03-21T04:20:12;100271.56;;;19.05;42.51
77281;BME280;66339;47.262;17.144;2023-03-21T04:22:55;100272.66;;;19.04;42.48
77281;BME280;66339;47.262;17.144;2023-03-21T04:25:24;100269.69;;;19.06;42.49
77281;BME280;66339;47.262;17.144;2023-03-21T04:27:59;100278.00;;;19.04;42.59
77281;BME280;66339;47.262;17.144;2023-03-21T04:30:26;100273.44;;;19.05;42.51
77281;BME280;66339;47.262;17.144;2023-03-21T04:32:54;100279.09;;;19.03;42.57
77281;BME280;66339;47.262;17.144;2023-03-21T04:35:22;100280.69;;;19.04;42.61
77281;BME280;66339;47.262;17.144;2023-03-21T04:37:52;100284.47;;;19.03;42.61
77281;BME280;66339;47.262;17.144;2023-03-21T04:40:24;100277.50;;;19.02;42.64
77281;BME280;66339;47.262;17.144;2023-03-21T04:42:51;100283.91;;;19.01;42.75
77281;BME280;66339;47.262;17.144;2023-03-21T04:45:18;100281.78;;;19.03;42.71
77281;BME280;66339;47.262;17.144;2023-03-21T04:47:45;100286.34;;;19.03;42.83
77281;BME280;66339;47.262;17.144;2023-03-21T04:50:12;100280.19;;;19.02;42.92
77281;BME280;66339;47.262;17.144;2023-03-21T04:52:42;100287.13;;;19.03;42.55
77281;BME280;66339;47.262;17.144;2023-03-21T04:55:13;100287.13;;;19.03;42.14
77281;BME280;66339;47.262;17.144;2023-03-21T04:57:40;100282.31;;;19.00;42.05
77281;BME280;66339;47.262;17.144;2023-03-21T05:00:08;100289.84;;;18.98;41.96
77281;BME280;66339;47.262;17.144;2023-03-21T05:02:41;100288.22;;;18.97;41.93
77281;BME280;66339;47.262;17.144;2023-03-21T05:05:08;100289.00;;;18.98;41.87
77281;BME280;66339;47.262;17.144;2023-03-21T05:07:39;100286.62;;;18.96;41.85
77281;BME280;66339;47.262;17.144;2023-03-21T05:10:09;100289.84;;;18.98;41.74
77281;BME280;66339;47.262;17.144;2023-03-21T05:12:37;100295.75;;;18.95;41.66
77281;BME280;66339;47.262;17.144;2023-03-21T05:15:08;100291.97;;;18.96;41.71
77281;BME280;66339;47.262;17.144;2023-03-21T05:17:35;100310.47;;;18.98;41.65
77281;BME280;66339;47.262;17.144;2023-03-21T05:20:03;100306.47;;;18.95;41.72
77281;BME280;66339;47.262;17.144;2023-03-21T05:22:37;100311.81;;;18.95;41.78
77281;BME280;66339;47.262;17.144;2023-03-21T05:25:08;100309.66;;;18.97;41.81
77281;BME280;66339;47.262;17.144;2023-03-21T05:27:38;100319.59;;;18.97;41.89
77281;BME280;66339;47.262;17.144;2023-03-21T05:30:11;100316.09;;;18.96;42.00
77281;BME280;66339;47.262;17.144;2023-03-21T05:32:38;100317.69;;;18.97;41.90
77281;BME280;66339;47.262;17.144;2023-03-21T05:35:09;100311.28;;;18.98;41.96
77281;BME280;66339;47.262;17.144;2023-03-21T05:37:36;100312.34;;;18.97;41.94
77281;BME280;66339;47.262;17.144;2023-03-21T05:40:08;100315.03;;;18.97;42.00
77281;BME280;66339;47.262;17.144;2023-03-21T05:42:39;100309.66;;;18.97;42.09
77281;BME280;66339;47.262;17.144;2023-03-21T05:45:10;100320.38;;;18.97;41.95
77281;BME280;66339;47.262;17.144;2023-03-21T05:47:38;100315.81;;;18.98;42.00
77281;BME280;66339;47.262;17.144;2023-03-21T05:50:10;100325.50;;;18.99;42.02
77281;BME280;66339;47.262;17.144;2023-03-21T05:52:38;100316.66;;;18.98;42.00
77281;BME280;66339;47.262;17.144;2023-03-21T05:55:06;100324.41;;;19.00;41.97
77281;BME280;66339;47.262;17.144;2023-03-21T05:57:37;100323.59;;;18.99;41.96
77281;BME280;66339;47.262;17.144;2023-03-21T06:00:06;100321.44;;;19.01;41.93
77281;BME280;66339;47.262;17.144;2023-03-21T06:02:34;100319.84;;;19.00;41.94
77281;BME280;66339;47.262;17.144;2023-03-21T06:05:02;100324.13;;;19.01;41.97
77281;BME280;66339;47.262;17.144;2023-03-21T06:07:33;100323.06;;;19.02;41.86
77281;BME280;66339;47.262;17.144;2023-03-21T06:10:06;100319.81;;;19.05;41.99
77281;BME280;66339;47.262;17.144;2023-03-21T06:12:33;100315.81;;;19.08;41.98
77281;BME280;66339;47.262;17.144;2023-03-21T06:15:01;100319.84;;;19.10;42.02
77281;BME280;66339;47.262;17.144;2023-03-21T06:17:29;100317.66;;;19.12;42.06
77281;BME280;66339;47.262;17.144;2023-03-21T06:20:03;100317.12;;;19.16;42.10
77281;BME280;66339;47.262;17.144;2023-03-21T06:22:35;100313.34;;;19.17;42.25
77281;BME280;66339;47.262;17.144;2023-03-21T06:25:04;100321.41;;;19.22;42.31
77281;BME280;66339;47.262;17.144;2023-03-21T06:27:33;100327.00;;;19.25;42.50
77281;BME280;66339;47.262;17.144;2023-03-21T06:30:03;100327.25;;;19.29;42.50
77281;BME280;66339;47.262;17.144;2023-03-21T06:32:33;100332.06;;;19.32;42.47
77281;BME280;66339;47.262;17.144;2023-03-21T06:35:04;100331.53;;;19.35;42.62
77281;BME280;66339;47.262;17.144;2023-03-21T06:37:31;100336.34;;;19.38;42.60
77281;BME280;66339;47.262;17.144;2023-03-21T06:40:03;100330.41;;;19.41;42.54
77281;BME280;66339;47.262;17.144;2023-03-21T06:42:31;100336.03;;;19.45;42.69
77281;BME280;66339;47.262;17.144;2023-03-21T06:45:01;100341.66;;;19.48;42.59
77281;BME280;66339;47.262;17.144;2023-03-21T06:47:32;100337.62;;;19.51;42.45
77281;BME280;66339;47.262;17.144;2023-03-21T06:50:00;100336.00;;;19.55;42.40
77281;BME280;66339;47.262;17.144;2023-03-21T06:52:28;100341.09;;;19.56;42.58
77281;BME280;66339;47.262;17.144;2023-03-21T06:54:55;100343.22;;;19.59;42.75
77281;BME280;66339;47.262;17.144;2023-03-21T06:57:22;100337.34;;;19.62;42.80
77281;BME280;66339;47.262;17.144;2023-03-21T06:59:53;100336.81;;;19.66;42.81
77281;BME280;66339;47.262;17.144;2023-03-21T07:02:20;100333.53;;;19.69;42.95
77281;BME280;66339;47.262;17.144;2023-03-21T07:04:51;100337.28;;;19.73;42.82
77281;BME280;66339;47.262;17.144;2023-03-21T07:07:23;100332.44;;;19.75;42.85
77281;BME280;66339;47.262;17.144;2023-03-21T07:09:54;100332.69;;;19.78;42.82
77281;BME280;66339;47.262;17.144;2023-03-21T07:12:22;100332.41;;;19.80;42.68
77281;BME280;66339;47.262;17.144;2023-03-21T07:14:49;100339.63;;;19.84;42.50
77281;BME280;66339;47.262;17.144;2023-03-21T07:17:18;100336.69;;;19.86;42.40
77281;BME280;66339;47.262;17.144;2023-03-21T07:19:48;100337.50;;;19.86;42.46
77281;BME280;66339;47.262;17.144;2023-03-21T07:22:15;100336.13;;;19.89;42.59
77281;BME280;66339;47.262;17.144;2023-03-21T07:24:42;100344.69;;;19.91;42.50
77281;BME280;66339;47.262;17.144;2023-03-21T07:27:13;100340.94;;;19.92;42.48
77281;BME280;66339;47.262;17.144;2023-03-21T07:29:40;100339.88;;;19.93;42.34
77281;BME280;66339;47.262;17.144;2023-03-21T07:32:10;100347.34;;;19.96;42.24
77281;BME280;66339;47.262;17.144;2023-03-21T07:34:37;100340.38;;;19.95;42.32
77281;BME280;66339;47.262;17.144;2023-03-21T07:37:04;100341.97;;;19.96;42.22
77281;BME280;66339;47.262;17.144;2023-03-21T07:39:32;100343.59;;;19.97;42.38
77281;BME280;66339;47.262;17.144;2023-03-21T07:41:59;100345.19;;;19.98;42.52
77281;BME280;66339;47.262;17.144;2023-03-21T07:44:26;100342.22;;;20.00;42.92
77281;BME280;66339;47.262;17.144;2023-03-21T07:46:53;100337.69;;;20.00;42.84
77281;BME280;66339;47.262;17.144;2023-03-21T07:49:22;100344.66;;;20.01;42.83
77281;BME280;66339;47.262;17.144;2023-03-21T07:51:55;100335.50;;;20.02;43.00
77281;BME280;66339;47.262;17.144;2023-03-21T07:54:22;100342.75;;;20.02;43.01
77281;BME280;66339;47.262;17.144;2023-03-21T07:56:54;100347.03;;;20.03;43.20
77281;BME280;66339;47.262;17.144;2023-03-21T07:59:22;100351.63;;;20.02;43.41
77281;BME280;66339;47.262;17.144;2023-03-21T08:01:49;100338.19;;;20.02;43.45
77281;BME280;66339;47.262;17.144;2023-03-21T08:04:16;100340.88;;;20.02;43.59
77281;BME280;66339;47.262;17.144;2023-03-21T08:06:45;100345.44;;;20.02;43.75
77281;BME280;66339;47.262;17.144;2023-03-21T08:09:15;100345.75;;;20.00;43.80
77281;BME280;66339;47.262;17.144;2023-03-21T08:11:49;100341.97;;;20.01;44.08
77281;BME280;66339;47.262;17.144;2023-03-21T08:14:19;100340.88;;;20.02;43.51
77281;BME280;66339;47.262;17.144;2023-03-21T08:16:46;100341.41;;;20.04;43.28
77281;BME280;66339;47.262;17.144;2023-03-21T08:19:17;100335.50;;;20.02;43.87
77281;BME280;66339;47.262;17.144;2023-03-21T08:21:43;100334.41;;;20.03;44.31
77281;BME280;66339;47.262;17.144;2023-03-21T08:24:10;100341.69;;;20.03;44.79
77281;BME280;66339;47.262;17.144;2023-03-21T08:26:47;100336.31;;;20.03;44.56
77281;BME280;66339;47.262;17.144;2023-03-21T08:29:13;100337.09;;;20.03;44.54
77281;BME280;66339;47.262;17.144;2023-03-21T08:31:44;100336.56;;;20.06;44.50
77281;BME280;66339;47.262;17.144;2023-03-21T08:34:11;100338.16;;;20.07;44.75
77281;BME280;66339;47.262;17.144;2023-03-21T08:36:38;100332.53;;;20.09;43.76
77281;BME280;66339;47.262;17.144;2023-03-21T08:39:08;100343.53;;;20.07;43.53
77281;BME280;66339;47.262;17.144;2023-03-21T08:41:39;100344.31;;;20.08;43.89
77281;BME280;66339;47.262;17.144;2023-03-21T08:44:09;100339.78;;;20.08;44.14
77281;BME280;66339;47.262;17.144;2023-03-21T08:46:36;100333.31;;;20.09;44.37
77281;BME280;66339;47.262;17.144;2023-03-21T08:49:09;100335.72;;;20.11;44.44
77281;BME280;66339;47.262;17.144;2023-03-21T08:51:39;100334.38;;;20.14;44.46
77281;BME280;66339;47.262;17.144;2023-03-21T08:54:15;100325.50;;;20.13;44.36
77281;BME280;66339;47.262;17.144;2023-03-21T08:56:43;100329.00;;;20.14;44.28
77281;BME280;66339;47.262;17.144;2023-03-21T08:59:10;100331.38;;;20.15;44.18
77281;BME280;66339;47.262;17.144;2023-03-21T09:01:36;100322.53;;;20.15;44.11
77281;BME280;66339;47.262;17.144;2023-03-21T09:04:04;100330.31;;;20.16;44.15
77281;BME280;66339;47.262;17.144;2023-03-21T09:06:32;100330.31;;;20.16;44.07
77281;BME280;66339;47.262;17.144;2023-03-21T09:09:02;100326.81;;;20.16;43.99
77281;BME280;66339;47.262;17.144;2023-03-21T09:11:33;100327.91;;;20.15;44.15
77281;BME280;66339;47.262;17.144;2023-03-21T09:14:00;100323.06;;;20.17;44.05
77281;BME280;66339;47.262;17.144;2023-03-21T09:16:40;100319.81;;;20.78;43.09
77281;BME280;66339;47.262;17.144;2023-03-21T09:19:07;100326.88;;;20.79;43.06
77281;BME280;66339;47.262;17.144;2023-03-21T09:21:34;100324.38;;;20.19;43.94
77281;BME280;66339;47.262;17.144;2023-03-21T09:24:01;100321.97;;;20.18;44.00
77281;BME280;66339;47.262;17.144;2023-03-21T09:26:29;100324.38;;;20.19;44.02
77281;BME280;66339;47.262;17.144;2023-03-21T09:28:56;100316.84;;;20.21;43.95
77281;BME280;66339;47.262;17.144;2023-03-21T09:31:26;100322.22;;;20.21;43.99
77281;BME280;66339;47.262;17.144;2023-03-21T09:33:54;100312.28;;;20.22;44.04
77281;BME280;66339;47.262;17.144;2023-03-21T09:36:24;100307.41;;;20.24;43.91
77281;BME280;66339;47.262;17.144;2023-03-21T09:38:52;100309.03;;;20.25;43.86
77281;BME280;66339;47.262;17.144;2023-03-21T09:47:17;100304.16;;;20.27;43.81
77281;BME280;66339;47.262;17.144;2023-03-21T09:49:57;100314.38;;;20.30;43.71
77281;BME280;66339;47.262;17.144;2023-03-21T09:52:55;100305.50;;;20.29;43.72
77281;BME280;66339;47.262;17.144;2023-03-21T09:55:34;100302.03;;;20.29;43.74
77281;BME280;66339;47.262;17.144;2023-03-21T09:58:35;100310.34;;;20.27;43.71
77281;BME280;66339;47.262;17.144;2023-03-21T10:01:10;100311.16;;;20.28;43.70
77281;BME280;66339;47.262;17.144;2023-03-21T10:03:41;100310.34;;;20.27;43.73
77281;BME280;66339;47.262;17.144;2023-03-21T10:06:12;100317.34;;;20.28;43.92
77281;BME280;66339;47.262;17.144;2023-03-21T10:08:44;100306.84;;;20.27;44.07
77281;BME280;66339;47.262;17.144;2023-03-21T10:13:58;100306.59;;;20.28;43.96
77281;BME280;66339;47.262;17.144;2023-03-21T10:16:51;100303.62;;;20.30;44.04
77281;BME280;66339;47.262;17.144;2023-03-21T10:19:21;100301.97;;;20.34;43.87
77281;BME280;66339;47.262;17.144;2023-03-21T10:21:49;100303.00;;;20.38;43.79
77281;BME280;66339;47.262;17.144;2023-03-21T10:24:33;100306.50;;;20.39;43.88
77281;BME280;66339;47.262;17.144;2023-03-21T10:27:01;100295.75;;;20.39;43.97
77281;BME280;66339;47.262;17.144;2023-03-21T10:29:33;100295.19;;;20.42;44.19
77281;BME280;66339;47.262;17.144;2023-03-21T10:32:06;100292.00;;;20.40;44.57
77281;BME280;66339;47.262;17.144;2023-03-21T10:34:47;100289.81;;;20.42;44.34
77281;BME280;66339;47.262;17.144;2023-03-21T10:37:14;100287.66;;;20.44;44.47
77281;BME280;66339;47.262;17.144;2023-03-21T10:39:46;100290.34;;;20.44;44.68
77281;BME280;66339;47.262;17.144;2023-03-21T10:42:26;100290.63;;;20.42;44.52
77281;BME280;66339;47.262;17.144;2023-03-21T10:44:55;100297.31;;;20.45;44.73
77281;BME280;66339;47.262;17.144;2023-03-21T10:47:40;100281.47;;;20.43;45.03
77281;BME280;66339;47.262;17.144;2023-03-21T10:50:12;100283.09;;;20.44;44.77
77281;BME280;66339;47.262;17.144;2023-03-21T10:52:49;100276.91;;;20.44;44.63
77281;BME280;66339;47.262;17.144;2023-03-21T10:55:27;100273.94;;;20.45;44.83
77281;BME280;66339;47.262;17.144;2023-03-21T10:58:04;100277.72;;;20.44;44.66
77281;BME280;66339;47.262;17.144;2023-03-21T11:00:40;100273.94;;;20.45;44.76
77281;BME280;66339;47.262;17.144;2023-03-21T11:03:34;100266.97;;;20.44;44.80
77281;BME280;66339;47.262;17.144;2023-03-21T11:06:07;100277.72;;;20.44;44.74
77281;BME280;66339;47.262;17.144;2023-03-21T11:08:48;100277.72;;;20.44;44.66
77281;BME280;66339;47.262;17.144;2023-03-21T11:11:37;100276.09;;;20.43;44.72
77281;BME280;66339;47.262;17.144;2023-03-21T11:14:07;100278.28;;;20.41;44.82
77281;BME280;66339;47.262;17.144;2023-03-21T11:16:53;100276.69;;;20.40;44.74
77281;BME280;66339;47.262;17.144;2023-03-21T11:19:32;100272.38;;;20.39;44.79
77281;BME280;66339;47.262;17.144;2023-03-21T11:22:07;100256.53;;;20.38;44.80
77281;BME280;66339;47.262;17.144;2023-03-21T11:24:34;100258.44;;;20.37;44.97
77281;BME280;66339;47.262;17.144;2023-03-21T11:27:06;100256.53;;;20.38;45.34
77281;BME280;66339;47.262;17.144;2023-03-21T11:29:35;100256.53;;;20.38;45.46
77281;BME280;66339;47.262;17.144;2023-03-21T11:32:19;100250.37;;;20.37;45.81
77281;BME280;66339;47.262;17.144;2023-03-21T11:34:59;100247.69;;;20.37;45.90
77281;BME280;66339;47.262;17.144;2023-03-21T11:37:32;100239.63;;;20.37;45.63
77281;BME280;66339;47.262;17.144;2023-03-21T11:42:58;100237.44;;;20.39;45.22
77281;BME280;66339;47.262;17.144;2023-03-21T11:45:27;100222.94;;;20.40;45.09
77281;BME280;66339;47.262;17.144;2023-03-21T11:47:56;100221.31;;;20.39;45.10
77281;BME280;66339;47.262;17.144;2023-03-21T11:50:37;100224.00;;;20.39;45.05
77281;BME280;66339;47.262;17.144;2023-03-21T12:01:54;100204.72;;;20.37;45.01
77281;BME280;66339;47.262;17.144;2023-03-21T12:04:51;100198.53;;;20.37;44.81
77281;BME280;66339;47.262;17.144;2023-03-21T12:07:36;100205.50;;;20.38;44.78
77281;BME280;66339;47.262;17.144;2023-03-21T12:15:18;100177.56;;;20.39;44.27
77281;BME280;66339;47.262;17.144;2023-03-21T12:23:41;100181.00;;;20.44;44.62
77281;BME280;66339;47.262;17.144;2023-03-21T12:26:29;100176.94;;;20.47;44.63
77281;BME280;66339;47.262;17.144;2023-03-21T12:34:33;100184.91;;;20.57;44.47
77281;BME280;66339;47.262;17.144;2023-03-21T12:46:02;100174.16;;;20.57;44.48
77281;BME280;66339;47.262;17.144;2023-03-21T12:48:50;100164.78;;;20.54;44.47
77281;BME280;66339;47.262;17.144;2023-03-21T12:51:23;100171.78;;;20.55;44.50
77281;BME280;66339;47.262;17.144;2023-03-21T12:59:59;100157.25;;;20.56;44.54
77281;BME280;66339;47.262;17.144;2023-03-21T13:02:31;100161.03;;;20.55;44.51
77281;BME280;66339;47.262;17.144;2023-03-21T13:05:25;100155.06;;;20.58;44.54
77281;BME280;66339;47.262;17.144;2023-03-21T13:10:43;100147.53;;;20.61;44.45
77281;BME280;66339;47.262;17.144;2023-03-21T13:13:22;100150.72;;;20.63;44.49
77281;BME280;66339;47.262;17.144;2023-03-21T13:27:20;100133.22;;;20.65;44.17
77281;BME280;66339;47.262;17.144;2023-03-21T13:29:59;100132.44;;;20.65;44.13
77281;BME280;66339;47.262;17.144;2023-03-21T13:34:58;100122.69;;;20.69;43.91
77281;BME280;66339;47.262;17.144;2023-03-21T13:37:31;100115.44;;;20.69;43.99
77281;BME280;66339;47.262;17.144;2023-03-21T13:40:01;100115.44;;;20.69;44.04
77281;BME280;66339;47.262;17.144;2023-03-21T13:42:32;100111.94;;;20.69;44.13
77281;BME280;66339;47.262;17.144;2023-03-21T13:45:00;100117.03;;;20.70;44.16
77281;BME280;66339;47.262;17.144;2023-03-21T13:47:38;100113.53;;;20.70;44.23
77281;BME280;66339;47.262;17.144;2023-03-21T13:50:29;100117.31;;;20.69;44.49
77281;BME280;66339;47.262;17.144;2023-03-21T13:53:15;100116.22;;;20.70;44.63
77281;BME280;66339;47.262;17.144;2023-03-21T13:55:47;100113.53;;;20.70;44.72
77281;BME280;66339;47.262;17.144;2023-03-21T14:01:23;100108.16;;;20.70;45.02
77281;BME280;66339;47.262;17.144;2023-03-21T14:09:34;100098.00;;;20.67;46.46
77281;BME280;66339;47.262;17.144;2023-03-21T14:12:07;100100.19;;;20.65;46.36
77281;BME280;66339;47.262;17.144;2023-03-21T14:14:40;100109.34;;;20.64;46.15
77281;BME280;66339;47.262;17.144;2023-03-21T14:17:14;100096.41;;;20.66;46.08
77281;BME280;66339;47.262;17.144;2023-03-21T14:19:51;100101.50;;;20.67;46.05
77281;BME280;66339;47.262;17.144;2023-03-21T14:22:21;100104.97;;;20.68;45.83
77281;BME280;66339;47.262;17.144;2023-03-21T14:24:59;100089.44;;;20.65;45.76
77281;BME280;66339;47.262;17.144;2023-03-21T14:27:33;100097.50;;;20.65;45.57
77281;BME280;66339;47.262;17.144;2023-03-21T14:30:04;100093.22;;;20.64;45.35
77281;BME280;66339;47.262;17.144;2023-03-21T14:32:35;100086.75;;;20.65;45.16
77281;BME280;66339;47.262;17.144;2023-03-21T14:35:03;100087.00;;;20.63;44.95
77281;BME280;66339;47.262;17.144;2023-03-21T14:37:38;100089.78;;;20.58;44.59
77281;BME280;66339;47.262;17.144;2023-03-21T14:40:16;100095.94;;;20.58;45.10
77281;BME280;66339;47.262;17.144;2023-03-21T14:42:48;100084.69;;;20.56;45.25
77281;BME280;66339;47.262;17.144;2023-03-21T14:45:25;100081.47;;;20.54;45.27
77281;BME280;66339;47.262;17.144;2023-03-21T14:50:49;100086.38;;;20.52;45.22
77281;BME280;66339;47.262;17.144;2023-03-21T14:53:30;100081.00;;;20.52;45.34